createdAt,value
2018-06-15T00:00:35.189Z,96.40
2018-06-15T00:03:03.716Z,97.00
2018-06-15T00:05:31.643Z,96.70
2018-06-15T00:07:59.285Z,96.40
2018-06-15T00:10:26.845Z,96.50
2018-06-15T00:12:54.440Z,96.80
2018-06-15T00:15:21.984Z,97.30
2018-06-15T00:17:49.546Z,97.20
2018-06-15T00:20:17.129Z,97.20
2018-06-15T00:22:44.652Z,97.10
2018-06-15T00:25:12.474Z,97.50
2018-06-15T00:27:40.045Z,97.20
2018-06-15T00:30:07.942Z,97.60
2018-06-15T00:32:35.980Z,96.80
2018-06-15T00:35:03.677Z,97.30
2018-06-15T00:37:32.537Z,97.10
2018-06-15T00:40:00.118Z,97.50
2018-06-15T00:42:27.669Z,97.20
2018-06-15T00:44:55.402Z,97.70
2018-06-15T00:47:22.973Z,97.50
2018-06-15T00:49:50.549Z,97.90
2018-06-15T00:52:18.690Z,97.50
2018-06-15T00:54:46.244Z,97.40
2018-06-15T00:59:47.390Z,97.50
2018-06-15T01:02:14.981Z,97.70
2018-06-15T01:04:42.514Z,97.30
2018-06-15T01:07:10.061Z,97.30
2018-06-15T01:09:37.672Z,97.30
2018-06-15T01:12:05.445Z,97.20
2018-06-15T01:14:33.265Z,97.40
2018-06-15T01:17:01.954Z,97.40
2018-06-15T01:19:29.549Z,97.60
2018-06-15T01:21:57.125Z,97.50
2018-06-15T01:24:24.665Z,97.50
2018-06-15T01:26:52.317Z,97.80
2018-06-15T01:29:19.853Z,98.10
2018-06-15T01:31:47.394Z,97.90
2018-06-15T01:34:14.990Z,97.90
2018-06-15T01:36:42.563Z,97.80
2018-06-15T01:39:11.413Z,97.90
2018-06-15T01:41:39.040Z,97.60
2018-06-15T01:44:06.633Z,98.00
2018-06-15T01:46:34.437Z,98.20
2018-06-15T01:49:02.013Z,97.80
2018-06-15T01:51:29.781Z,97.70
2018-06-15T01:53:57.585Z,97.60
2018-06-15T01:56:25.209Z,97.60
2018-06-15T01:58:52.822Z,97.60
2018-06-15T02:01:20.542Z,97.70
2018-06-15T02:03:47.997Z,97.60
2018-06-15T02:06:15.621Z,97.40
2018-06-15T02:08:45.253Z,97.60
2018-06-15T02:11:13.066Z,97.50
2018-06-15T02:13:40.633Z,97.40
2018-06-15T02:16:08.357Z,97.40
2018-06-15T02:18:35.878Z,97.70
2018-06-15T02:21:03.457Z,97.90
2018-06-15T02:23:31.023Z,97.70
2018-06-15T02:26:05.889Z,97.50
2018-06-15T02:28:33.430Z,97.70
2018-06-15T02:31:01.025Z,98.00
2018-06-15T02:33:28.554Z,98.10
2018-06-15T02:35:56.215Z,98.40
2018-06-15T02:38:23.759Z,98.40
2018-06-15T02:40:51.497Z,97.90
2018-06-15T02:43:19.048Z,98.40
2018-06-15T02:45:46.600Z,98.40
2018-06-15T02:48:14.199Z,98.30
2018-06-15T02:50:41.749Z,98.20
2018-06-15T02:53:09.306Z,98.50
2018-06-15T02:55:36.898Z,98.70
2018-06-15T02:58:04.575Z,98.60
2018-06-15T03:00:32.173Z,98.70
2018-06-15T03:02:59.742Z,98.80
2018-06-15T03:05:27.274Z,98.90
2018-06-15T03:07:54.853Z,99.00
2018-06-15T03:10:22.406Z,98.90
2018-06-15T03:12:50.112Z,98.90
2018-06-15T03:15:17.740Z,98.90
2018-06-15T03:17:45.300Z,98.50
2018-06-15T03:20:12.876Z,98.40
2018-06-15T03:22:40.573Z,98.40
2018-06-15T03:25:08.269Z,98.50
2018-06-15T03:27:36.517Z,98.50
2018-06-15T03:30:04.837Z,98.30
2018-06-15T03:32:32.424Z,98.30
2018-06-15T03:34:59.981Z,98.30
2018-06-15T03:37:27.865Z,98.20
2018-06-15T03:39:55.393Z,98.20
2018-06-15T03:42:23.018Z,98.30
2018-06-15T03:44:50.573Z,98.40
2018-06-15T03:47:18.187Z,98.30
2018-06-15T03:49:45.776Z,98.30
2018-06-15T03:52:13.337Z,97.90
2018-06-15T03:54:40.869Z,98.30
2018-06-15T03:57:08.490Z,98.20
2018-06-15T03:59:36.057Z,98.20
2018-06-15T04:02:04.325Z,98.50
2018-06-15T04:04:31.918Z,98.60
2018-06-15T04:06:59.538Z,98.80
2018-06-15T04:09:27.157Z,98.50
2018-06-15T04:11:55.177Z,98.70
2018-06-15T04:14:22.777Z,98.70
2018-06-15T04:16:50.389Z,98.70
2018-06-15T04:19:18.073Z,98.80
2018-06-15T04:21:45.617Z,98.60
2018-06-15T04:24:13.197Z,98.80
2018-06-15T04:26:41.885Z,98.80
2018-06-15T04:29:09.926Z,98.80
2018-06-15T04:31:37.597Z,98.70
2018-06-15T04:34:05.159Z,98.30
2018-06-15T04:36:32.714Z,98.00
2018-06-15T04:39:00.278Z,98.20
2018-06-15T04:41:27.846Z,98.10
2018-06-15T04:43:55.470Z,97.80
2018-06-15T04:46:22.981Z,97.70
2018-06-15T04:48:50.562Z,97.80
2018-06-15T04:51:18.276Z,97.70
2018-06-15T04:53:45.857Z,97.80
2018-06-15T04:56:13.433Z,97.80
2018-06-15T04:58:40.978Z,98.00
2018-06-15T05:01:08.561Z,97.70
2018-06-15T05:03:36.120Z,97.50
2018-06-15T05:06:03.692Z,97.00
2018-06-15T05:08:31.226Z,97.10
2018-06-15T05:10:58.788Z,96.60
2018-06-15T05:13:26.330Z,96.30
2018-06-15T05:15:53.830Z,96.50
2018-06-15T05:18:21.400Z,96.20
2018-06-15T05:20:49.131Z,96.10
2018-06-15T05:23:16.796Z,96.20
2018-06-15T05:25:44.418Z,96.50
2018-06-15T05:28:11.988Z,96.40
2018-06-15T05:30:39.701Z,96.10
2018-06-15T05:33:07.309Z,96.00
2018-06-15T05:35:34.938Z,95.90
2018-06-15T05:38:02.544Z,95.80
2018-06-15T05:40:30.249Z,95.40
2018-06-15T05:42:57.786Z,94.70
2018-06-15T05:45:25.357Z,94.60
2018-06-15T05:47:52.869Z,94.20
2018-06-15T05:50:20.672Z,94.30
2018-06-15T05:52:49.165Z,93.90
2018-06-15T05:55:16.725Z,93.50
2018-06-15T05:57:44.332Z,93.50
2018-06-15T06:00:11.929Z,93.70
2018-06-15T06:02:39.463Z,93.30
2018-06-15T06:05:07.060Z,92.90
2018-06-15T06:07:34.569Z,92.90
2018-06-15T06:10:02.314Z,93.40
2018-06-15T06:12:29.865Z,92.70
2018-06-15T06:14:57.437Z,92.50
2018-06-15T06:19:52.682Z,92.40
2018-06-15T06:22:20.623Z,92.50
2018-06-15T06:24:48.721Z,92.30
2018-06-15T06:27:16.271Z,91.50
2018-06-15T06:29:43.837Z,91.70
2018-06-15T06:32:11.359Z,91.50
2018-06-15T06:34:38.957Z,91.40
2018-06-15T06:37:06.516Z,90.90
2018-06-15T06:39:34.888Z,91.50
2018-06-15T06:42:02.421Z,91.90
2018-06-15T06:44:30.057Z,91.10
2018-06-15T06:46:57.582Z,90.40
2018-06-15T06:49:25.126Z,90.40
2018-06-15T06:51:52.838Z,89.40
2018-06-15T06:54:20.405Z,88.70
2018-06-15T06:56:48.035Z,89.60
2018-06-15T06:59:16.050Z,85.70
2018-06-15T07:01:48.053Z,85.90
2018-06-15T07:04:15.743Z,85.70
2018-06-15T07:06:43.285Z,88.00
2018-06-15T07:09:10.861Z,86.30
2018-06-15T07:11:40.201Z,87.60
2018-06-15T07:14:07.764Z,87.90
2018-06-15T07:16:35.305Z,87.00
2018-06-15T07:19:02.882Z,85.90
2018-06-15T07:21:30.467Z,85.60
2018-06-15T07:23:58.338Z,85.30
2018-06-15T07:26:25.877Z,83.00
2018-06-15T07:28:53.429Z,81.00
2018-06-15T07:31:21.021Z,81.40
2018-06-15T07:33:48.545Z,80.30
2018-06-15T07:36:16.173Z,81.20
2018-06-15T07:38:43.693Z,82.70
2018-06-15T07:41:11.233Z,81.50
2018-06-15T07:43:38.936Z,79.30
2018-06-15T07:46:08.596Z,80.10
2018-06-15T07:48:36.221Z,79.70
2018-06-15T07:51:04.670Z,81.30
2018-06-15T07:53:32.201Z,80.10
2018-06-15T07:56:00.117Z,80.00
2018-06-15T07:58:27.739Z,77.60
2018-06-15T08:00:55.341Z,79.30
2018-06-15T08:03:23.673Z,81.40
2018-06-15T08:05:51.293Z,82.50
2018-06-15T08:08:20.424Z,83.50
2018-06-15T08:10:47.961Z,82.40
2018-06-15T08:13:15.477Z,82.50
2018-06-15T08:15:43.209Z,83.30
2018-06-15T08:18:11.201Z,81.60
2018-06-15T08:20:38.778Z,80.30
2018-06-15T08:23:06.408Z,79.90
2018-06-15T08:25:34.006Z,79.30
2018-06-15T08:28:01.749Z,78.90
2018-06-15T08:30:29.318Z,79.00
2018-06-15T08:32:57.042Z,80.40
2018-06-15T08:35:24.969Z,79.60
2018-06-15T08:37:52.522Z,80.70
2018-06-15T08:40:20.130Z,80.40
2018-06-15T08:42:47.694Z,80.30
2018-06-15T08:45:15.467Z,80.30
2018-06-15T08:47:43.365Z,81.20
2018-06-15T08:50:10.965Z,79.10
2018-06-15T08:52:38.682Z,80.90
2018-06-15T08:55:06.277Z,80.30
2018-06-15T08:57:33.956Z,77.80
2018-06-15T09:00:01.543Z,76.60
2018-06-15T09:02:29.133Z,74.70
2018-06-15T09:04:56.710Z,73.50
2018-06-15T09:07:25.193Z,71.00
2018-06-15T09:09:54.756Z,72.60
2018-06-15T09:12:22.481Z,73.50
2018-06-15T09:14:50.089Z,74.10
2018-06-15T09:17:17.686Z,73.80
2018-06-15T09:19:45.245Z,72.10
2018-06-15T09:22:12.989Z,72.40
2018-06-15T09:27:08.578Z,69.10
2018-06-15T09:29:36.290Z,68.00
2018-06-15T09:32:03.935Z,71.80
2018-06-15T09:34:31.501Z,72.20
2018-06-15T09:36:59.125Z,72.80
2018-06-15T09:39:26.665Z,74.90
2018-06-15T09:41:54.265Z,73.60
2018-06-15T09:44:21.943Z,71.50
2018-06-15T09:46:49.528Z,73.00
2018-06-15T09:49:17.197Z,71.30
2018-06-15T09:51:44.785Z,71.60
2018-06-15T09:54:12.849Z,70.30
2018-06-15T09:56:40.531Z,70.00
2018-06-15T09:59:08.085Z,69.80
2018-06-15T10:01:35.672Z,69.60
2018-06-15T10:04:03.297Z,66.50
2018-06-15T10:06:30.910Z,67.80
2018-06-15T10:08:58.477Z,69.60
2018-06-15T10:11:26.919Z,68.90
2018-06-15T10:13:54.485Z,64.70
2018-06-15T10:16:22.538Z,67.30
2018-06-15T10:18:50.109Z,66.30
2018-06-15T10:21:18.566Z,64.80
2018-06-15T10:23:46.138Z,65.80
2018-06-15T10:26:13.701Z,65.00
2018-06-15T10:28:41.286Z,66.60
2018-06-15T10:31:08.859Z,67.50
2018-06-15T10:33:37.253Z,66.50
2018-06-15T10:36:04.834Z,64.80
2018-06-15T10:38:32.566Z,66.90
2018-06-15T10:41:00.129Z,64.60
2018-06-15T10:43:27.957Z,65.80
2018-06-15T10:45:55.634Z,65.50
2018-06-15T10:48:26.226Z,63.60
2018-06-15T10:50:53.813Z,68.40
2018-06-15T10:53:21.417Z,67.80
2018-06-15T10:55:49.003Z,64.60
2018-06-15T10:58:16.599Z,63.90
2018-06-15T11:00:44.145Z,61.20
2018-06-15T11:03:13.669Z,64.50
2018-06-15T11:05:41.230Z,65.50
2018-06-15T11:08:09.294Z,64.20
2018-06-15T11:10:36.893Z,63.70
2018-06-15T11:13:04.503Z,61.40
2018-06-15T11:15:32.140Z,61.20
2018-06-15T11:17:59.729Z,60.70
2018-06-15T11:20:28.751Z,62.00
2018-06-15T11:22:56.636Z,56.10
2018-06-15T11:25:24.823Z,56.80
2018-06-15T11:27:52.405Z,59.90
2018-06-15T11:30:20.936Z,59.40
2018-06-15T11:32:48.567Z,55.50
2018-06-15T11:35:16.138Z,56.30
2018-06-15T11:37:43.745Z,56.40
2018-06-15T11:40:11.324Z,56.80
2018-06-15T11:42:39.001Z,56.70
2018-06-15T11:45:06.538Z,58.20
2018-06-15T11:47:34.874Z,58.10
2018-06-15T11:50:02.585Z,56.50
2018-06-15T11:52:30.172Z,55.80
2018-06-15T11:54:57.786Z,56.00
2018-06-15T11:57:25.601Z,55.30
2018-06-15T11:59:53.204Z,56.50
2018-06-15T12:02:20.846Z,53.90
2018-06-15T12:04:48.574Z,56.40
2018-06-15T12:07:16.829Z,56.20
2018-06-15T12:09:44.404Z,53.80
2018-06-15T12:12:12.090Z,53.10
2018-06-15T12:14:39.657Z,54.30
2018-06-15T12:17:07.402Z,55.10
2018-06-15T12:19:35.885Z,55.90
2018-06-15T12:22:03.458Z,56.20
2018-06-15T12:24:31.045Z,55.30
2018-06-15T12:26:58.628Z,54.60
2018-06-15T12:29:26.202Z,52.60
2018-06-15T12:31:54.153Z,52.80
2018-06-15T12:34:21.756Z,55.10
2018-06-15T12:36:50.471Z,52.90
2018-06-15T12:39:18.070Z,54.40
2018-06-15T12:41:45.625Z,54.30
2018-06-15T12:44:13.278Z,56.90
2018-06-15T12:46:40.845Z,54.20
2018-06-15T12:49:08.469Z,55.40
2018-06-15T12:51:36.074Z,56.00
2018-06-15T12:54:03.798Z,54.20
2018-06-15T12:56:31.397Z,53.30
2018-06-15T12:58:59.105Z,54.50
2018-06-15T13:01:27.206Z,54.10
2018-06-15T13:03:54.947Z,53.20
2018-06-15T13:06:22.998Z,54.70
2018-06-15T13:08:50.622Z,54.40
2018-06-15T13:11:18.197Z,51.50
2018-06-15T13:13:45.778Z,52.90
2018-06-15T13:16:13.337Z,52.20
2018-06-15T13:18:41.157Z,52.50
2018-06-15T13:21:09.080Z,53.50
2018-06-15T13:23:36.997Z,51.40
2018-06-15T13:26:05.110Z,52.70
2018-06-15T13:28:32.716Z,53.00
2018-06-15T13:31:03.409Z,52.90
2018-06-15T13:33:30.978Z,52.30
2018-06-15T13:35:58.586Z,51.50
2018-06-15T13:38:26.502Z,52.40
2018-06-15T13:40:54.554Z,51.90
2018-06-15T13:43:22.175Z,50.40
2018-06-15T13:45:50.374Z,49.80
2018-06-15T13:48:17.997Z,49.30
2018-06-15T13:50:45.782Z,50.00
2018-06-15T13:53:13.354Z,48.60
2018-06-15T13:55:41.004Z,47.30
2018-06-15T13:58:08.765Z,45.30
2018-06-15T14:00:36.365Z,43.90
2018-06-15T14:03:04.031Z,46.20
2018-06-15T14:05:31.758Z,47.70
2018-06-15T14:07:59.334Z,49.30
2018-06-15T14:10:26.929Z,51.30
2018-06-15T14:12:54.707Z,52.60
2018-06-15T14:15:22.336Z,52.80
2018-06-15T14:17:49.989Z,52.70
2018-06-15T14:20:17.673Z,52.70
2018-06-15T14:22:45.500Z,51.90
2018-06-15T14:25:13.190Z,51.60
2018-06-15T14:27:40.981Z,55.30
2018-06-15T14:30:09.039Z,50.50
2018-06-15T14:32:36.761Z,47.70
2018-06-15T14:35:05.081Z,49.60
2018-06-15T14:37:32.917Z,49.00
2018-06-15T14:40:00.600Z,48.70
2018-06-15T14:42:29.125Z,48.60
2018-06-15T14:44:56.905Z,49.90
2018-06-15T14:47:25.108Z,52.10
2018-06-15T14:49:52.742Z,51.50
2018-06-15T14:52:24.377Z,48.60
2018-06-15T14:54:51.969Z,49.00
2018-06-15T14:57:19.545Z,47.20
2018-06-15T14:59:47.166Z,46.40
2018-06-15T15:02:15.935Z,46.30
2018-06-15T15:04:43.773Z,45.50
2018-06-15T15:07:12.404Z,42.10
2018-06-15T15:09:40.034Z,37.10
2018-06-15T15:12:07.610Z,34.50
2018-06-15T15:14:35.268Z,35.40
2018-06-15T15:17:02.921Z,37.80
2018-06-15T15:19:30.786Z,39.00
2018-06-15T15:21:58.537Z,42.20
2018-06-15T15:24:26.112Z,41.50
2018-06-15T15:26:53.705Z,40.00
2018-06-15T15:29:21.315Z,41.80
2018-06-15T15:31:48.901Z,41.00
2018-06-15T15:34:16.567Z,38.90
2018-06-15T15:36:44.548Z,38.30
2018-06-15T15:39:12.128Z,40.90
2018-06-15T15:41:40.218Z,44.80
2018-06-15T15:44:13.887Z,48.10
2018-06-15T15:46:41.746Z,49.40
2018-06-15T15:49:09.568Z,48.50
2018-06-15T15:51:37.450Z,50.80
2018-06-15T15:54:05.106Z,50.40
2018-06-15T15:56:33.497Z,50.30
2018-06-15T15:59:01.247Z,51.80
2018-06-15T16:01:28.830Z,52.70
2018-06-15T16:03:56.502Z,53.60
2018-06-15T16:06:24.090Z,55.50
2018-06-15T16:08:51.661Z,52.90
2018-06-15T16:11:19.248Z,54.40
2018-06-15T16:13:47.857Z,53.90
2018-06-15T16:16:15.442Z,52.80
2018-06-15T16:18:43.029Z,54.00
2018-06-15T16:21:10.681Z,52.50
2018-06-15T16:23:38.393Z,53.40
2018-06-15T16:26:06.087Z,53.30
2018-06-15T16:28:34.016Z,52.50
2018-06-15T16:31:01.592Z,52.20
2018-06-15T16:33:29.210Z,51.40
2018-06-15T16:35:56.786Z,44.40
2018-06-15T16:38:24.547Z,39.20
2018-06-15T16:40:52.113Z,37.80
2018-06-15T16:43:19.819Z,36.70
2018-06-15T16:45:47.664Z,33.10
2018-06-15T16:48:15.272Z,32.60
2018-06-15T16:50:43.913Z,31.90
2018-06-15T16:53:11.677Z,31.90
2018-06-15T16:55:39.265Z,32.00
2018-06-15T16:58:07.898Z,31.60
2018-06-15T17:00:35.513Z,30.00
2018-06-15T17:03:03.266Z,28.90
2018-06-15T17:05:30.991Z,29.90
2018-06-15T17:07:58.625Z,29.50
2018-06-15T17:10:26.293Z,30.00
2018-06-15T17:12:53.993Z,31.40
2018-06-15T17:15:21.580Z,33.10
2018-06-15T17:17:49.205Z,34.30
2018-06-15T17:20:16.932Z,35.80
2018-06-15T17:22:44.637Z,35.70
2018-06-15T17:25:12.330Z,37.00
2018-06-15T17:27:40.130Z,39.90
2018-06-15T17:30:08.642Z,40.80
2018-06-15T17:32:36.310Z,40.20
2018-06-15T17:35:04.146Z,40.80
2018-06-15T17:37:31.749Z,42.30
2018-06-15T17:40:00.126Z,43.90
2018-06-15T17:42:27.934Z,45.50
2018-06-15T17:44:55.701Z,45.00
2018-06-15T17:47:30.430Z,46.10
2018-06-15T17:49:58.241Z,48.50
2018-06-15T17:54:54.247Z,49.60
2018-06-15T17:57:21.929Z,49.00
2018-06-15T17:59:50.269Z,49.60
2018-06-15T18:02:17.952Z,49.80
2018-06-15T18:04:45.660Z,48.80
2018-06-15T18:07:13.285Z,48.60
2018-06-15T18:09:40.882Z,50.10
2018-06-15T18:12:08.792Z,51.20
2018-06-15T18:14:36.575Z,52.10
2018-06-15T18:17:05.117Z,53.20
2018-06-15T18:19:32.897Z,53.60
2018-06-15T18:22:00.609Z,54.00
2018-06-15T18:24:28.205Z,55.10
2018-06-15T18:26:55.886Z,55.70
2018-06-15T18:29:23.525Z,55.30
2018-06-15T18:31:51.781Z,56.20
2018-06-15T18:34:19.534Z,56.50
2018-06-15T18:36:47.106Z,58.80
2018-06-15T18:39:14.701Z,57.10
2018-06-15T18:41:42.706Z,58.50
2018-06-15T18:44:11.140Z,58.80
2018-06-15T18:46:39.649Z,59.90
2018-06-15T18:49:07.791Z,58.90
2018-06-15T18:51:35.545Z,58.90
2018-06-15T18:54:03.189Z,59.10
2018-06-15T18:56:30.901Z,60.30
2018-06-15T18:58:58.488Z,61.70
2018-06-15T19:01:26.005Z,60.80
2018-06-15T19:03:54.314Z,61.90
2018-06-15T19:06:21.941Z,64.00
2018-06-15T19:08:49.490Z,65.60
2018-06-15T19:11:17.097Z,66.40
2018-06-15T19:13:44.692Z,65.40
2018-06-15T19:16:12.262Z,65.60
2018-06-15T19:18:39.945Z,66.10
2018-06-15T19:21:07.837Z,67.00
2018-06-15T19:23:35.504Z,67.80
2018-06-15T19:26:03.173Z,68.50
2018-06-15T19:28:32.139Z,69.00
2018-06-15T19:31:00.025Z,69.30
2018-06-15T19:33:27.745Z,71.20
2018-06-15T19:35:55.401Z,70.90
2018-06-15T19:38:22.940Z,71.20
2018-06-15T19:40:50.479Z,71.10
2018-06-15T19:43:18.037Z,71.80
2018-06-15T19:45:45.942Z,71.10
2018-06-15T19:48:13.481Z,72.70
2018-06-15T19:50:42.381Z,72.30
2018-06-15T19:53:09.942Z,71.60
2018-06-15T19:55:37.497Z,71.50
2018-06-15T19:58:05.039Z,71.80
2018-06-15T20:00:32.636Z,70.10
2018-06-15T20:03:00.206Z,71.60
2018-06-15T20:05:27.894Z,71.30
2018-06-15T20:07:55.428Z,72.60
2018-06-15T20:10:22.985Z,74.30
2018-06-15T20:12:50.502Z,74.40
2018-06-15T20:15:18.068Z,74.80
2018-06-15T20:17:45.572Z,74.90
2018-06-15T20:20:13.205Z,74.90
2018-06-15T20:22:40.732Z,75.80
2018-06-15T20:25:08.305Z,76.70
2018-06-15T20:27:42.757Z,77.60
2018-06-15T20:30:10.329Z,77.20
2018-06-15T20:32:37.869Z,77.50
2018-06-15T20:35:05.529Z,77.60
2018-06-15T20:37:33.100Z,77.90
2018-06-15T20:40:00.677Z,77.50
2018-06-15T20:42:28.185Z,77.90
2018-06-15T20:44:56.693Z,78.60
2018-06-15T20:47:24.496Z,77.80
2018-06-15T20:49:52.062Z,77.40
2018-06-15T20:52:19.796Z,77.90
2018-06-15T20:54:47.382Z,78.60
2018-06-15T20:57:14.925Z,79.30
2018-06-15T20:59:42.521Z,79.00
2018-06-15T21:02:10.087Z,78.00
2018-06-15T21:04:37.738Z,77.70
2018-06-15T21:07:06.013Z,76.90
2018-06-15T21:09:33.563Z,76.80
2018-06-15T21:12:01.242Z,76.90
2018-06-15T21:14:29.001Z,77.20
2018-06-15T21:16:56.639Z,76.50
2018-06-15T21:19:24.352Z,78.10
2018-06-15T21:21:52.050Z,79.40
2018-06-15T21:24:19.934Z,80.00
2018-06-15T21:26:47.495Z,80.80
2018-06-15T21:29:15.721Z,81.10
2018-06-15T21:31:43.277Z,81.50
2018-06-15T21:34:10.851Z,80.60
2018-06-15T21:36:39.752Z,80.30
2018-06-15T21:39:08.269Z,80.00
2018-06-15T21:41:35.834Z,80.50
2018-06-15T21:44:03.553Z,79.90
2018-06-15T21:46:31.110Z,80.30
2018-06-15T21:48:58.676Z,80.40
2018-06-15T21:51:26.278Z,80.30
2018-06-15T21:53:55.000Z,79.30
2018-06-15T21:56:22.622Z,79.60
2018-06-15T21:58:50.232Z,79.60
2018-06-15T22:01:17.780Z,79.80
2018-06-15T22:03:45.439Z,80.00
2018-06-15T22:06:12.987Z,80.70
2018-06-15T22:08:40.627Z,80.80
2018-06-15T22:11:08.214Z,80.90
2018-06-15T22:13:35.821Z,81.50
2018-06-15T22:16:03.386Z,82.70
2018-06-15T22:18:31.288Z,82.80
2018-06-15T22:20:58.980Z,82.60
2018-06-15T22:23:26.529Z,82.20
2018-06-15T22:25:54.243Z,82.30
2018-06-15T22:28:22.058Z,82.30
2018-06-15T22:30:50.048Z,83.00
2018-06-15T22:33:17.610Z,83.80
2018-06-15T22:35:45.187Z,84.30
2018-06-15T22:38:12.796Z,85.70
2018-06-15T22:40:40.849Z,86.30
2018-06-15T22:43:08.405Z,87.60
2018-06-15T22:45:35.965Z,87.30
2018-06-15T22:48:03.555Z,88.00
2018-06-15T22:50:32.001Z,88.00
2018-06-15T22:52:59.556Z,87.60
2018-06-15T22:55:27.198Z,88.20
2018-06-15T22:57:54.732Z,87.80
2018-06-15T23:00:23.376Z,88.00
2018-06-15T23:02:50.981Z,87.80
2018-06-15T23:05:18.533Z,88.30
2018-06-15T23:07:46.753Z,88.50
2018-06-15T23:10:14.287Z,88.70
2018-06-15T23:12:41.858Z,88.60
2018-06-15T23:15:10.650Z,88.50
2018-06-15T23:17:38.189Z,88.50
2018-06-15T23:20:05.870Z,89.30
2018-06-15T23:22:33.412Z,90.00
2018-06-15T23:25:00.941Z,90.10
2018-06-15T23:27:28.493Z,90.20
2018-06-15T23:29:56.097Z,90.20
2018-06-15T23:32:23.671Z,90.50
2018-06-15T23:34:51.645Z,90.60
2018-06-15T23:37:19.199Z,90.70
2018-06-15T23:39:46.761Z,90.90
2018-06-15T23:42:14.651Z,90.40
2018-06-15T23:44:42.237Z,90.70
2018-06-15T23:47:09.774Z,90.40
2018-06-15T23:49:37.424Z,90.20
2018-06-15T23:52:05.461Z,90.40
2018-06-15T23:54:32.997Z,90.60
2018-06-15T23:57:00.546Z,90.90
2018-06-15T23:59:28.098Z,91.00
